»·PEaware :: N283EM KPSP-KSAN

N283EM :: KPSP-KSAN

FLIGHT INFORMATION

Flight Status: Arrived
Operator: Privately registered:
United States
More flights under this callsign
Pilot: Zuqi C. (19949)
Aircraft: BEECH AIRCRAFT BONANZA
(BE36)
More flights by this aircraft type
Origin: KPSP Palm Springs Intl
United States
Destination: KSAN San Diego Intl-Lindbergh
United States
More flights between these airports :: More routes between these airports
Route: +
File this flight plan on PilotEdge
Remarks:
Altitude:
(Current/Filed)
8,500ft
Speed:
(Current/Filed)
0kts
Departed: 28-Oct-20 07:37 PM
Arrived: 28-Oct-20 08:18 PM
Distance/Time
Traveled:
74nm/0:41
Distance/Time
To Go:
Arrived

Flight Plot

Page will automatically refresh every two minutes.


Map Options




Map Legend


Flown Route
Filed Route
Departure Airport
Arrival Airport
Navaid (VOR, NDB)
Fix

Horizontal Profiles

Position Reports

Time Latitude Longitude Heading Altitude Ground
Speed
28-Oct-20 19:27 33.826413 -116.509553 358 434ft 0kts
28-Oct-20 19:28 33.826412 -116.509553 358 434ft 0kts
28-Oct-20 19:29 33.826412 -116.509553 358 434ft 0kts
28-Oct-20 19:30 33.826372 -116.509154 144 434ft 12kts
28-Oct-20 19:31 33.825967 -116.507730 55 432ft 6kts
28-Oct-20 19:32 33.822633 -116.503426 145 413ft 28kts
28-Oct-20 19:33 33.818374 -116.499487 123 401ft 11kts
28-Oct-20 19:34 33.818174 -116.498625 30 400ft 0kts
28-Oct-20 19:35 33.818174 -116.498625 30 400ft 0kts
28-Oct-20 19:36 33.821017 -116.499945 326 407ft 53kts
28-Oct-20 19:37 33.842455 -116.519499 324 977ft 115kts
28-Oct-20 19:38 33.867282 -116.546613 317 1844ft 122kts
28-Oct-20 19:39 33.888276 -116.578537 302 2709ft 123kts
28-Oct-20 19:40 33.900990 -116.617036 287 3492ft 125kts
28-Oct-20 19:41 33.910162 -116.656973 284 4282ft 122kts
28-Oct-20 19:42 33.912633 -116.698044 274 5002ft 123kts
28-Oct-20 19:43 33.914559 -116.738733 275 5717ft 125kts
28-Oct-20 19:44 33.915674 -116.780593 272 6378ft 126kts
28-Oct-20 19:45 33.915976 -116.823050 272 6991ft 127kts
28-Oct-20 19:46 33.916116 -116.866160 272 7569ft 129kts
28-Oct-20 19:47 33.888421 -116.884248 182 8098ft 134kts
28-Oct-20 19:48 33.850434 -116.884359 180 8479ft 145kts
28-Oct-20 19:49 33.807656 -116.893707 198 8494ft 162kts
28-Oct-20 19:50 33.763696 -116.910332 197 8504ft 168kts
28-Oct-20 19:51 33.718774 -116.927120 197 8505ft 170kts
28-Oct-20 19:52 33.673460 -116.944009 197 8501ft 170kts
28-Oct-20 19:53 33.633149 -116.972003 220 8504ft 170kts
28-Oct-20 19:54 33.596259 -117.008877 220 8503ft 173kts
28-Oct-20 19:55 33.558349 -117.044621 214 8503ft 174kts
28-Oct-20 19:56 33.515545 -117.072028 204 8504ft 175kts
28-Oct-20 19:57 33.470903 -117.096011 204 8389ft 181kts
28-Oct-20 19:58 33.423130 -117.121766 204 7884ft 191kts
28-Oct-20 19:59 33.374633 -117.147881 204 7368ft 183kts
28-Oct-20 20:01 33.330841 -117.171436 204 6878ft 167kts
28-Oct-20 20:02 33.288996 -117.193926 204 6384ft 164kts
28-Oct-20 20:03 33.246685 -117.216649 204 5894ft 170kts
28-Oct-20 20:04 33.205248 -117.238861 204 5412ft 172kts
28-Oct-20 20:05 33.161491 -117.262302 204 4911ft 172kts
28-Oct-20 20:06 33.116112 -117.277684 184 4462ft 170kts
28-Oct-20 20:07 33.068647 -117.274254 175 3964ft 171kts
28-Oct-20 20:08 33.020859 -117.269475 175 3523ft 170kts
28-Oct-20 20:09 32.975476 -117.265000 175 3495ft 159kts
28-Oct-20 20:10 32.931662 -117.260681 175 3499ft 156kts
28-Oct-20 20:11 32.889121 -117.256503 175 3500ft 156kts
28-Oct-20 20:12 32.846681 -117.251979 165 3498ft 146kts
28-Oct-20 20:13 32.809889 -117.234329 153 3266ft 150kts
28-Oct-20 20:14 32.771319 -117.211668 153 2338ft 158kts
28-Oct-20 20:14 32.750158 -117.185723 99 1379ft 117kts
28-Oct-20 20:16 32.733318 -117.165082 191 623ft 94kts
28-Oct-20 20:16 32.732513 -117.185339 285 19ft 48kts
28-Oct-20 20:18 32.733953 -117.186553 105 16ft 10kts
28-Oct-20 20:18 32.733102 -117.183080 104 17ft 18kts
28-Oct-20 20:20 32.733721 -117.178729 146 19ft 9kts
28-Oct-20 20:20 32.733360 -117.178669 199 18ft 0kts

Navigation Log

Ident Type
Flight plan parsing failed, navigation log unavailable